DTKA/TBJ METAR and TAF weather

Enter ICAO airport designator
Station Type Date Time Source
DTKA METAR 2020/07/02 22:00 UTC NOAA

DTKA 022200Z 08001KT CAVOK 22/16 Q1013 NOSIG


Station Type Date Time Source
DTKA Decoded METAR 2020/07/02 22:00 UTC NOAA

Tabarka, Tunisia (DTKA) 36-57N 008-45E 21M
Jul 02, 2020 - 06:00 PM EDT / 2020.07.02 2200 UTC
Wind: from the E (080 degrees) at 1 MPH (1 KT):0
Visibility: greater than 7 mile(s):0
Temperature: 71 F (22 C)
Dew Point: 60 F (16 C)
Relative Humidity: 68%
Pressure (altimeter): 29.91 in. Hg (1013 hPa)
ob: DTKA 022200Z 08001KT CAVOK 22/16 Q1013 NOSIG
cycle: 22

Station Type Date Time Source
DTKA TAF 2018/07/22 13:33 UTC NOAA

TAF TAF DTKA 221200Z 2213/2322 23005KT 9999 FEW020 PROB30
TEMPO 2217/2222 4000 -TSRA FEW026CB

Example: see airport list